createdAt,value
2022-12-10T00:01:09.432Z,83.54
2022-12-10T00:03:36.816Z,83.42
2022-12-10T00:06:05.358Z,82.98
2022-12-10T00:08:39.602Z,83.05
2022-12-10T00:11:08.409Z,82.63
2022-12-10T00:13:36.509Z,82.66
2022-12-10T00:16:05.087Z,82.32
2022-12-10T00:18:32.330Z,82.52
2022-12-10T00:20:58.902Z,82.34
2022-12-10T00:23:25.540Z,82.07
2022-12-10T00:25:52.063Z,82.30
2022-12-10T00:28:18.616Z,82.22
2022-12-10T00:30:45.176Z,82.49
2022-12-10T00:33:11.733Z,82.13
2022-12-10T00:35:38.780Z,82.36
2022-12-10T00:38:05.361Z,82.51
2022-12-10T00:40:31.931Z,81.99
2022-12-10T00:42:58.480Z,82.28
2022-12-10T00:45:25.065Z,81.78
2022-12-10T00:47:51.648Z,81.77
2022-12-10T00:50:18.357Z,82.36
2022-12-10T00:52:44.950Z,82.13
2022-12-10T00:55:11.520Z,81.37
2022-12-10T00:57:38.102Z,81.80
2022-12-10T01:00:05.722Z,81.78
2022-12-10T01:02:32.514Z,81.00
2022-12-10T01:04:59.246Z,81.32
2022-12-10T01:07:25.810Z,81.59
2022-12-10T01:09:52.421Z,81.61
2022-12-10T01:12:18.975Z,81.41
2022-12-10T01:14:45.595Z,81.25
2022-12-10T01:17:12.183Z,81.21
2022-12-10T01:19:39.369Z,81.35
2022-12-10T01:22:05.944Z,80.54
2022-12-10T01:24:32.909Z,81.08
2022-12-10T01:27:00.331Z,81.36
2022-12-10T01:29:28.951Z,81.47
2022-12-10T01:31:57.468Z,81.60
2022-12-10T01:34:25.498Z,81.46
2022-12-10T01:36:54.230Z,81.46
2022-12-10T01:39:22.892Z,81.56
2022-12-10T01:41:58.240Z,81.50
2022-12-10T01:44:24.759Z,81.91
2022-12-10T01:46:54.335Z,82.17
2022-12-10T01:49:27.161Z,82.57
2022-12-10T01:51:56.922Z,81.80
2022-12-10T01:54:29.871Z,82.14
2022-12-10T01:57:00.677Z,82.72
2022-12-10T01:59:28.833Z,82.96
2022-12-10T02:02:27.567Z,83.53
2022-12-10T02:05:14.583Z,83.31
2022-12-10T02:07:53.435Z,83.32
2022-12-10T02:10:26.057Z,83.81
2022-12-10T02:13:07.494Z,82.12
2022-12-10T02:15:44.676Z,81.44
2022-12-10T02:18:18.803Z,81.78
2022-12-10T02:20:50.774Z,81.79
2022-12-10T02:23:44.154Z,81.75
2022-12-10T02:26:42.248Z,81.52
2022-12-10T02:29:19.545Z,81.36
2022-12-10T02:32:14.929Z,81.78
2022-12-10T02:34:49.156Z,81.47
2022-12-10T02:37:21.655Z,82.32
2022-12-10T02:39:52.164Z,81.69
2022-12-10T02:42:20.287Z,81.80
2022-12-10T02:44:49.698Z,79.81
2022-12-10T02:47:19.303Z,80.77
2022-12-10T02:49:49.424Z,80.85
2022-12-10T02:52:19.965Z,79.84
2022-12-10T02:54:49.356Z,80.22
2022-12-10T02:57:37.402Z,80.15
2022-12-10T03:00:07.757Z,80.11
2022-12-10T03:03:03.618Z,79.67
2022-12-10T03:05:39.038Z,79.91
2022-12-10T03:08:26.147Z,79.95
2022-12-10T03:10:56.271Z,80.61
2022-12-10T03:13:30.841Z,80.15
2022-12-10T03:15:59.980Z,80.82
2022-12-10T03:18:28.333Z,79.58
2022-12-10T03:21:00.569Z,79.58
2022-12-10T03:23:29.748Z,79.89
2022-12-10T03:25:56.666Z,79.67
2022-12-10T03:28:24.483Z,79.95
2022-12-10T03:30:52.655Z,79.87
2022-12-10T03:33:19.593Z,80.07
2022-12-10T03:35:46.869Z,80.01
2022-12-10T03:38:14.981Z,80.47
2022-12-10T03:40:41.915Z,80.95
2022-12-10T03:43:08.491Z,80.75
2022-12-10T03:45:35.038Z,81.70
2022-12-10T03:48:01.613Z,81.98
2022-12-10T03:50:28.299Z,81.21
2022-12-10T03:52:54.864Z,81.78
2022-12-10T03:55:21.458Z,81.29
2022-12-10T03:57:49.135Z,81.89
2022-12-10T04:00:15.924Z,81.17
2022-12-10T04:02:43.120Z,81.42
2022-12-10T04:05:09.887Z,81.75
2022-12-10T04:07:36.759Z,81.49
2022-12-10T04:10:04.385Z,81.25
2022-12-10T04:12:31.137Z,81.57
2022-12-10T04:15:16.272Z,81.56
2022-12-10T04:17:42.852Z,81.14
2022-12-10T04:20:29.688Z,81.35
2022-12-10T04:23:14.817Z,81.91
2022-12-10T04:26:00.380Z,81.15
2022-12-10T04:28:27.240Z,80.79
2022-12-10T04:30:53.892Z,80.95
2022-12-10T04:33:20.503Z,80.52
2022-12-10T04:35:47.184Z,80.30
2022-12-10T04:38:13.834Z,80.70
2022-12-10T04:40:40.404Z,81.22
2022-12-10T04:43:06.980Z,80.60
2022-12-10T04:45:35.649Z,81.05
2022-12-10T04:48:02.631Z,80.70
2022-12-10T04:50:29.277Z,80.43
2022-12-10T04:52:55.826Z,80.65
2022-12-10T04:55:22.662Z,80.15
2022-12-10T04:57:49.295Z,80.90
2022-12-10T05:00:16.095Z,80.81
2022-12-10T05:02:42.658Z,80.45
2022-12-10T05:05:09.379Z,80.46
2022-12-10T05:07:35.960Z,80.81
2022-12-10T05:10:02.535Z,81.15
2022-12-10T05:12:29.112Z,80.73
2022-12-10T05:14:55.703Z,80.90
2022-12-10T05:17:22.313Z,80.37
2022-12-10T05:19:48.894Z,80.95
2022-12-10T05:22:33.896Z,81.23
2022-12-10T05:25:00.917Z,81.03
2022-12-10T05:27:32.614Z,80.44
2022-12-10T05:29:59.321Z,80.97
2022-12-10T05:32:25.884Z,80.62
2022-12-10T05:34:52.466Z,80.88
2022-12-10T05:37:19.056Z,81.69
2022-12-10T05:39:45.747Z,82.22
2022-12-10T05:42:12.433Z,82.19
2022-12-10T05:44:39.046Z,82.43
2022-12-10T05:47:05.611Z,81.65
2022-12-10T05:49:32.284Z,81.65
2022-12-10T05:51:58.882Z,79.61
2022-12-10T05:54:25.645Z,80.70
2022-12-10T05:56:52.319Z,80.21
2022-12-10T05:59:18.944Z,80.72
2022-12-10T06:01:45.959Z,81.10
2022-12-10T06:04:13.123Z,80.13
2022-12-10T06:06:40.740Z,80.94
2022-12-10T06:09:11.778Z,81.35
2022-12-10T06:11:38.336Z,80.71
2022-12-10T06:14:04.937Z,80.18
2022-12-10T06:16:31.710Z,80.16
2022-12-10T06:18:58.968Z,80.71
2022-12-10T06:21:26.322Z,80.17
2022-12-10T06:23:53.836Z,80.27
2022-12-10T06:26:23.753Z,80.25
2022-12-10T06:28:51.249Z,80.17
2022-12-10T06:31:18.782Z,80.67
2022-12-10T06:33:45.915Z,80.89
2022-12-10T06:36:15.818Z,79.62
2022-12-10T06:38:42.864Z,80.18
2022-12-10T06:41:13.439Z,80.23
2022-12-10T06:43:40.389Z,80.41
2022-12-10T06:46:12.332Z,80.24
2022-12-10T06:48:39.297Z,80.26
2022-12-10T06:51:06.672Z,80.60
2022-12-10T06:53:34.751Z,80.99
2022-12-10T06:56:02.964Z,80.99
2022-12-10T06:58:30.720Z,79.57
2022-12-10T07:01:09.092Z,80.37
2022-12-10T07:03:36.388Z,79.65
2022-12-10T07:06:04.266Z,79.71
2022-12-10T07:08:31.264Z,79.53
2022-12-10T07:10:58.729Z,80.16
2022-12-10T07:13:30.503Z,79.84
2022-12-10T07:15:58.002Z,79.98
2022-12-10T07:18:25.326Z,80.09
2022-12-10T07:20:51.926Z,80.07
2022-12-10T07:23:18.921Z,80.08
2022-12-10T07:25:45.499Z,79.66
2022-12-10T07:28:12.279Z,80.13
2022-12-10T07:30:38.892Z,78.88
2022-12-10T07:33:05.668Z,78.76
2022-12-10T07:35:32.266Z,79.48
2022-12-10T07:37:58.906Z,79.20
2022-12-10T07:40:25.432Z,79.88
2022-12-10T07:42:52.014Z,79.84
2022-12-10T07:45:18.669Z,80.48
2022-12-10T07:47:45.282Z,80.69
2022-12-10T07:50:12.082Z,80.92
2022-12-10T07:52:38.816Z,81.38
2022-12-10T07:55:05.866Z,81.89
2022-12-10T07:57:32.500Z,80.25
2022-12-10T07:59:59.560Z,81.29
2022-12-10T08:02:26.237Z,81.49
2022-12-10T08:04:52.763Z,81.24
2022-12-10T08:07:19.344Z,81.29
2022-12-10T08:09:45.934Z,82.03
2022-12-10T08:12:12.622Z,82.32
2022-12-10T08:14:39.204Z,82.43
2022-12-10T08:17:05.813Z,82.38
2022-12-10T08:19:32.438Z,81.22
2022-12-10T08:21:59.119Z,82.08
2022-12-10T08:24:25.738Z,79.02
2022-12-10T08:26:52.319Z,80.77
2022-12-10T08:29:18.919Z,81.88
2022-12-10T08:31:45.718Z,81.81
2022-12-10T08:34:14.807Z,81.15
2022-12-10T08:36:41.794Z,82.18
2022-12-10T08:39:08.592Z,82.70
2022-12-10T08:41:35.152Z,82.66
2022-12-10T08:44:01.744Z,81.10
2022-12-10T08:46:29.565Z,80.30
2022-12-10T08:48:56.240Z,81.21
2022-12-10T08:51:23.074Z,81.48
2022-12-10T08:53:49.755Z,81.63
2022-12-10T08:56:16.394Z,79.65
2022-12-10T08:58:43.295Z,80.38
2022-12-10T09:01:16.225Z,81.07
2022-12-10T09:03:43.297Z,80.94
2022-12-10T09:06:14.485Z,81.12
2022-12-10T09:08:41.529Z,82.60
2022-12-10T09:11:12.418Z,82.32
2022-12-10T09:13:39.041Z,81.72
2022-12-10T09:16:06.712Z,80.62
2022-12-10T09:18:33.672Z,80.19
2022-12-10T09:21:00.203Z,80.15
2022-12-10T09:23:27.254Z,79.78
2022-12-10T09:25:54.143Z,79.15
2022-12-10T09:28:20.845Z,80.61
2022-12-10T09:30:56.682Z,80.12
2022-12-10T09:33:23.547Z,79.65
2022-12-10T09:35:50.153Z,79.39
2022-12-10T09:38:16.821Z,80.16
2022-12-10T09:41:03.091Z,80.65
2022-12-10T09:43:59.018Z,79.30
2022-12-10T09:46:53.172Z,73.05
2022-12-10T09:49:34.730Z,76.58
2022-12-10T09:52:05.219Z,75.91
2022-12-10T09:54:37.476Z,76.81
2022-12-10T09:57:07.065Z,77.91
2022-12-10T09:59:41.475Z,76.91
2022-12-10T10:02:29.928Z,78.67
2022-12-10T10:05:27.499Z,78.01
2022-12-10T10:08:27.319Z,75.74
2022-12-10T10:10:54.200Z,77.78
2022-12-10T10:13:42.449Z,76.09
2022-12-10T10:16:24.424Z,76.43
2022-12-10T10:19:07.129Z,74.92
2022-12-10T10:21:37.993Z,76.86
2022-12-10T10:24:11.618Z,77.26
2022-12-10T10:26:38.768Z,77.12
2022-12-10T10:29:12.045Z,77.05
2022-12-10T10:31:41.942Z,77.43
2022-12-10T10:34:25.747Z,77.40
2022-12-10T10:36:58.827Z,76.93
2022-12-10T10:39:31.548Z,77.98
2022-12-10T10:42:00.548Z,77.07
2022-12-10T10:44:34.851Z,75.66
2022-12-10T10:47:01.582Z,77.24
2022-12-10T10:49:30.426Z,76.50
2022-12-10T10:52:05.189Z,75.73
2022-12-10T10:54:50.440Z,74.29
2022-12-10T10:57:37.894Z,75.21
2022-12-10T11:00:18.369Z,76.29
2022-12-10T11:02:45.426Z,76.55
2022-12-10T11:05:32.248Z,76.37
2022-12-10T11:08:05.638Z,77.67
2022-12-10T11:10:32.690Z,77.67
2022-12-10T11:13:09.060Z,78.88
2022-12-10T11:15:43.233Z,78.07
2022-12-10T11:18:32.254Z,79.86
2022-12-10T11:20:58.801Z,78.51
2022-12-10T11:23:33.237Z,78.94
2022-12-10T11:26:05.552Z,80.52
2022-12-10T11:28:40.409Z,79.54
2022-12-10T11:31:27.212Z,78.44
2022-12-10T11:34:03.866Z,73.21
2022-12-10T11:36:42.427Z,78.79
2022-12-10T11:39:24.816Z,78.77
2022-12-10T11:42:12.932Z,76.91
2022-12-10T11:45:08.884Z,77.77
2022-12-10T11:47:45.345Z,79.71
2022-12-10T11:50:26.532Z,77.41
2022-12-10T11:53:27.736Z,76.71
2022-12-10T11:56:04.468Z,76.86
2022-12-10T11:58:43.087Z,78.60
2022-12-10T12:01:30.036Z,77.95
2022-12-10T12:04:21.467Z,75.87
2022-12-10T12:06:59.354Z,78.33
2022-12-10T12:10:01.432Z,76.55
2022-12-10T12:12:55.832Z,76.79
2022-12-10T12:16:08.476Z,76.91
2022-12-10T12:18:46.637Z,78.08
2022-12-10T12:21:16.333Z,77.19
2022-12-10T12:24:08.269Z,77.04
2022-12-10T12:26:41.130Z,78.42
2022-12-10T12:29:18.586Z,78.45
2022-12-10T12:31:50.335Z,76.06
2022-12-10T12:34:30.088Z,76.63
2022-12-10T12:36:56.755Z,77.80
2022-12-10T12:39:52.343Z,77.92
2022-12-10T12:42:35.025Z,77.55
2022-12-10T12:45:14.303Z,78.86
2022-12-10T12:48:01.904Z,79.34
2022-12-10T12:50:53.519Z,77.93
2022-12-10T12:53:23.765Z,78.07
2022-12-10T12:56:09.263Z,77.80
2022-12-10T12:58:35.832Z,78.03
2022-12-10T13:01:19.371Z,77.05
2022-12-10T13:03:47.156Z,78.47
2022-12-10T13:06:23.774Z,79.39
2022-12-10T13:09:24.731Z,78.78
2022-12-10T13:12:03.514Z,77.17
2022-12-10T13:14:35.112Z,77.56
2022-12-10T13:17:29.777Z,78.45
2022-12-10T13:20:29.339Z,79.78
2022-12-10T13:23:01.576Z,78.97
2022-12-10T13:25:56.699Z,78.25
2022-12-10T13:28:30.829Z,79.02
2022-12-10T13:31:18.948Z,78.44
2022-12-10T13:33:48.282Z,79.38
2022-12-10T13:36:26.295Z,79.32
2022-12-10T13:39:23.199Z,77.54
2022-12-10T13:42:28.626Z,78.61
2022-12-10T13:45:26.489Z,77.49
2022-12-10T13:47:55.753Z,78.35
2022-12-10T13:50:31.175Z,78.03
2022-12-10T13:53:50.254Z,76.66
2022-12-10T13:56:30.329Z,78.58
2022-12-10T13:59:15.874Z,78.56
2022-12-10T14:02:21.396Z,78.67
2022-12-10T14:05:00.042Z,77.93
2022-12-10T14:07:28.191Z,78.13
2022-12-10T14:09:57.982Z,78.28
2022-12-10T14:12:34.820Z,77.17
2022-12-10T14:15:05.930Z,77.75
2022-12-10T14:17:38.165Z,78.27
2022-12-10T14:20:08.420Z,77.42
2022-12-10T14:23:23.086Z,75.85
2022-12-10T14:25:49.734Z,77.89
2022-12-10T14:28:18.750Z,76.76
2022-12-10T14:30:48.183Z,78.05
2022-12-10T14:33:18.532Z,77.62
2022-12-10T14:35:49.065Z,78.11
2022-12-10T14:38:28.377Z,77.74
2022-12-10T14:40:56.043Z,77.40
2022-12-10T14:43:26.877Z,78.04
2022-12-10T14:45:57.452Z,78.51
2022-12-10T14:48:24.969Z,77.91
2022-12-10T14:50:52.398Z,78.02
2022-12-10T14:53:29.245Z,78.46
2022-12-10T14:56:05.864Z,78.77
2022-12-10T14:58:42.223Z,78.61
2022-12-10T15:01:20.605Z,78.40
2022-12-10T15:03:49.297Z,78.96
2022-12-10T15:06:19.816Z,79.51
2022-12-10T15:08:48.489Z,79.24
2022-12-10T15:11:20.048Z,79.05
2022-12-10T15:13:54.623Z,79.32
2022-12-10T15:16:30.811Z,78.66
2022-12-10T15:19:30.355Z,78.80
2022-12-10T15:22:02.559Z,78.81
2022-12-10T15:24:37.995Z,79.49
2022-12-10T15:27:19.904Z,79.57
2022-12-10T15:29:47.090Z,79.53
2022-12-10T15:32:18.405Z,79.34
2022-12-10T15:34:53.497Z,80.08
2022-12-10T15:37:27.704Z,80.02
2022-12-10T15:40:03.030Z,80.36
2022-12-10T15:42:39.822Z,80.05
2022-12-10T15:45:20.013Z,79.84
2022-12-10T15:47:46.665Z,80.51
2022-12-10T15:50:13.728Z,80.40
2022-12-10T15:52:40.991Z,80.79
2022-12-10T15:55:08.564Z,80.95
2022-12-10T15:57:37.403Z,79.55
2022-12-10T16:00:20.987Z,80.43
2022-12-10T16:02:58.611Z,80.52
2022-12-10T16:05:36.106Z,81.09
2022-12-10T16:08:13.324Z,80.90
2022-12-10T16:10:40.014Z,80.29
2022-12-10T16:13:12.224Z,81.17
2022-12-10T16:15:55.662Z,80.95
2022-12-10T16:18:22.246Z,81.53
2022-12-10T16:20:49.106Z,81.76
2022-12-10T16:23:16.001Z,81.29
2022-12-10T16:25:45.321Z,81.35
2022-12-10T16:28:14.287Z,81.42
2022-12-10T16:30:47.611Z,81.58
2022-12-10T16:33:14.628Z,80.62
2022-12-10T16:35:41.416Z,81.53
2022-12-10T16:38:10.713Z,81.89
2022-12-10T16:40:39.709Z,82.53
2022-12-10T16:43:07.187Z,82.14
2022-12-10T16:45:39.311Z,81.60
2022-12-10T16:48:06.405Z,81.51
2022-12-10T16:50:34.356Z,82.23
2022-12-10T16:53:07.691Z,81.92
2022-12-10T16:55:34.774Z,81.93
2022-12-10T16:58:02.028Z,82.64
2022-12-10T17:00:29.192Z,81.83
2022-12-10T17:02:55.846Z,81.69
2022-12-10T17:05:53.275Z,82.17
2022-12-10T17:08:21.088Z,82.58
2022-12-10T17:11:07.881Z,82.89
2022-12-10T17:13:35.557Z,82.42
2022-12-10T17:16:03.321Z,82.91
2022-12-10T17:18:34.922Z,82.49
2022-12-10T17:21:01.614Z,82.55
2022-12-10T17:23:28.251Z,82.75
2022-12-10T17:25:55.319Z,82.40
2022-12-10T17:28:23.337Z,82.95
2022-12-10T17:30:50.757Z,82.10
2022-12-10T17:33:20.694Z,83.12
2022-12-10T17:35:48.974Z,82.83
2022-12-10T17:38:26.121Z,83.48
2022-12-10T17:40:53.815Z,83.06
2022-12-10T17:43:20.476Z,83.68
2022-12-10T17:45:47.209Z,83.49
2022-12-10T17:48:15.438Z,83.56
2022-12-10T17:50:45.027Z,83.64
2022-12-10T17:53:15.487Z,83.88
2022-12-10T17:55:48.392Z,83.92
2022-12-10T17:58:16.085Z,84.20
2022-12-10T18:00:44.730Z,84.09
2022-12-10T18:03:11.614Z,83.85
2022-12-10T18:05:39.077Z,84.91
2022-12-10T18:08:06.235Z,84.44
2022-12-10T18:10:34.493Z,84.68
2022-12-10T18:13:01.819Z,85.02
2022-12-10T18:15:30.157Z,84.50
2022-12-10T18:17:57.691Z,85.07
2022-12-10T18:20:26.134Z,84.99
2022-12-10T18:22:53.788Z,85.21
2022-12-10T18:25:22.928Z,85.46
2022-12-10T18:27:50.976Z,85.25
2022-12-10T18:30:20.680Z,85.11
2022-12-10T18:32:47.791Z,85.69
2022-12-10T18:35:14.768Z,85.76
2022-12-10T18:37:41.600Z,85.71
2022-12-10T18:40:14.436Z,85.32
2022-12-10T18:42:46.741Z,85.59
2022-12-10T18:45:14.264Z,85.51
2022-12-10T18:47:40.962Z,85.59
2022-12-10T18:50:20.536Z,86.03
2022-12-10T18:52:47.504Z,86.14
2022-12-10T18:55:14.169Z,85.32
2022-12-10T18:57:45.570Z,85.38
2022-12-10T19:00:19.462Z,85.89
2022-12-10T19:02:46.896Z,85.98
2022-12-10T19:05:14.366Z,85.28
2022-12-10T19:07:40.996Z,85.66
2022-12-10T19:10:14.877Z,85.33
2022-12-10T19:12:41.495Z,85.62
2022-12-10T19:15:08.974Z,85.44
2022-12-10T19:17:37.004Z,85.41
2022-12-10T19:20:04.742Z,85.76
2022-12-10T19:22:31.351Z,85.50
2022-12-10T19:24:57.876Z,85.90
2022-12-10T19:27:25.113Z,85.30
2022-12-10T19:29:51.749Z,85.35
2022-12-10T19:32:18.323Z,85.13
2022-12-10T19:34:45.069Z,84.73
2022-12-10T19:37:11.827Z,84.98
2022-12-10T19:39:38.388Z,84.91
2022-12-10T19:42:05.049Z,85.57
2022-12-10T19:44:32.226Z,85.04
2022-12-10T19:46:59.333Z,84.67
2022-12-10T19:49:26.023Z,84.45
2022-12-10T19:51:52.602Z,85.04
2022-12-10T19:54:19.276Z,84.82
2022-12-10T19:56:46.074Z,84.24
2022-12-10T19:59:17.996Z,84.57
2022-12-10T20:01:45.528Z,84.40
2022-12-10T20:04:14.649Z,84.33
2022-12-10T20:06:43.545Z,84.86
2022-12-10T20:09:24.964Z,84.97
2022-12-10T20:11:51.680Z,84.62
2022-12-10T20:14:18.846Z,84.52
2022-12-10T20:16:46.656Z,84.31
2022-12-10T20:19:15.839Z,84.67
2022-12-10T20:21:42.434Z,84.59
2022-12-10T20:24:09.498Z,84.22
2022-12-10T20:26:39.052Z,84.23
2022-12-10T20:29:21.014Z,84.07
2022-12-10T20:31:49.543Z,84.06
2022-12-10T20:34:17.030Z,84.33
2022-12-10T20:36:44.645Z,84.49
2022-12-10T20:39:23.332Z,83.91
2022-12-10T20:41:51.410Z,83.82
2022-12-10T20:44:18.665Z,83.84
2022-12-10T20:46:46.246Z,84.22
2022-12-10T20:49:15.181Z,84.47
2022-12-10T20:51:42.138Z,83.91
2022-12-10T20:54:10.432Z,83.92
2022-12-10T20:56:37.377Z,83.48
2022-12-10T20:59:05.499Z,83.58
2022-12-10T21:01:32.189Z,82.99
2022-12-10T21:03:59.659Z,83.35
2022-12-10T21:06:28.860Z,83.46
2022-12-10T21:08:56.029Z,83.93
2022-12-10T21:11:22.715Z,83.73
2022-12-10T21:13:49.315Z,83.71
2022-12-10T21:16:19.990Z,83.02
2022-12-10T21:18:49.091Z,83.36
2022-12-10T21:21:15.735Z,83.38
2022-12-10T21:23:43.513Z,82.91
2022-12-10T21:26:10.979Z,82.35
2022-12-10T21:28:37.573Z,83.11
2022-12-10T21:31:04.338Z,83.09
2022-12-10T21:33:33.426Z,83.52
2022-12-10T21:36:02.552Z,83.91
2022-12-10T21:38:29.192Z,83.37
2022-12-10T21:40:55.812Z,83.38
2022-12-10T21:43:28.929Z,83.34
2022-12-10T21:45:56.693Z,83.66
2022-12-10T21:48:25.907Z,82.40
2022-12-10T21:51:02.803Z,82.18
2022-12-10T21:53:29.911Z,82.59
2022-12-10T21:55:56.534Z,83.43
2022-12-10T21:58:23.395Z,82.70
2022-12-10T22:00:57.599Z,82.60
2022-12-10T22:03:24.436Z,82.55
2022-12-10T22:05:51.110Z,82.52
2022-12-10T22:08:17.709Z,83.05
2022-12-10T22:10:49.946Z,82.63
2022-12-10T22:13:18.677Z,81.88
2022-12-10T22:15:47.202Z,82.06
2022-12-10T22:18:14.921Z,82.03
2022-12-10T22:20:41.839Z,82.81
2022-12-10T22:23:12.166Z,81.94
2022-12-10T22:25:43.538Z,80.96
2022-12-10T22:28:10.569Z,82.19
2022-12-10T22:30:40.632Z,82.08
2022-12-10T22:33:08.368Z,81.06
2022-12-10T22:35:35.273Z,81.10
2022-12-10T22:38:01.938Z,80.68
2022-12-10T22:40:28.514Z,81.27
2022-12-10T22:43:06.599Z,81.02
2022-12-10T22:45:43.578Z,81.16
2022-12-10T22:48:10.704Z,80.51
2022-12-10T22:50:37.909Z,80.77
2022-12-10T22:53:05.597Z,80.92
2022-12-10T22:55:32.227Z,80.82
2022-12-10T22:57:58.839Z,80.24
2022-12-10T23:00:25.546Z,81.66
2022-12-10T23:02:52.169Z,81.50
2022-12-10T23:05:18.918Z,81.58
2022-12-10T23:07:45.890Z,81.43
2022-12-10T23:10:13.067Z,82.21
2022-12-10T23:12:58.524Z,81.82
2022-12-10T23:15:25.271Z,82.77
2022-12-10T23:17:52.475Z,82.67
2022-12-10T23:20:19.206Z,83.19
2022-12-10T23:22:45.767Z,83.36
2022-12-10T23:25:12.632Z,83.32
2022-12-10T23:27:39.515Z,83.59
2022-12-10T23:30:08.197Z,82.96
2022-12-10T23:32:34.878Z,83.79
2022-12-10T23:35:01.583Z,83.17
2022-12-10T23:37:31.457Z,83.40
2022-12-10T23:39:59.696Z,83.22
2022-12-10T23:42:27.828Z,83.96
2022-12-10T23:44:54.597Z,83.76
2022-12-10T23:47:21.182Z,83.08
2022-12-10T23:49:47.742Z,83.81
2022-12-10T23:52:14.280Z,83.48
2022-12-10T23:54:40.928Z,83.16
2022-12-10T23:57:07.687Z,83.40
2022-12-10T23:59:34.300Z,83.51
